Time;durP1;ratioP1;P1;durP2;ratioP2;P2;SDS_P1;SDS_P2;PMS_P1;PMS_P2;Temp;Humidity;BMP_temperature;BMP_pressure;BME280_temperature;BME280_humidity;BME280_pressure;Samples;Min_cycle;Max_cycle;Signal;HPM_P1;HPM_P2
2022/09/03 00:00:48;;;;;;;29.83;19.98;;;;;;;15.50;47.15;99335.38;5022174;28;20053;-72
2022/09/03 00:03:44;;;;;;;34.22;19.77;;;;;;;15.48;46.99;99344.59;5054933;28;20400;-73
2022/09/03 00:06:30;;;;;;;30.73;19.50;;;;;;;15.37;47.05;99334.91;5035992;28;20068;-72
2022/09/03 00:09:03;;;;;;;25.60;19.13;;;;;;;15.35;47.26;99341.47;5038250;28;20132;-72
2022/09/03 00:11:46;;;;;;;35.20;20.55;;;;;;;15.32;47.60;99339.91;5055066;28;20500;-72
2022/09/03 00:14:47;;;;;;;32.20;20.95;;;;;;;15.22;47.75;99331.91;5054505;28;20041;-71
2022/09/03 00:17:17;;;;;;;29.08;20.20;;;;;;;15.27;47.64;99351.16;5039217;28;20045;-73
2022/09/03 00:19:56;;;;;;;33.80;20.35;;;;;;;15.23;47.65;99357.84;5038032;28;20037;-71
2022/09/03 00:22:48;;;;;;;33.00;19.92;;;;;;;15.18;48.31;99354.75;5037931;28;20140;-71
2022/09/03 00:25:19;;;;;;;33.22;20.25;;;;;;;15.14;47.79;99356.06;5037896;28;20124;-72
2022/09/03 00:27:49;;;;;;;32.33;21.08;;;;;;;15.12;48.23;99352.69;5038352;28;20048;-72
2022/09/03 00:30:17;;;;;;;30.05;19.63;;;;;;;15.14;47.98;99360.59;5054549;28;20494;-73
2022/09/03 00:32:53;;;;;;;32.10;20.88;;;;;;;15.09;48.35;99363.75;5055628;28;20044;-72
2022/09/03 00:35:24;;;;;;;29.85;20.35;;;;;;;14.97;48.54;99359.53;5037923;28;20135;-72
2022/09/03 00:37:52;;;;;;;26.70;19.98;;;;;;;14.97;48.73;99367.63;5037913;28;20122;-72
2022/09/03 00:40:33;;;;;;;28.45;19.63;;;;;;;14.99;48.59;99362.94;5037505;28;20041;-72
2022/09/03 00:43:18;;;;;;;30.73;19.80;;;;;;;14.97;48.49;99370.31;5021017;28;20495;-72
2022/09/03 00:46:17;;;;;;;29.55;20.13;;;;;;;14.92;48.96;99364.53;5054289;28;20049;-72
2022/09/03 00:49:05;;;;;;;30.60;20.65;;;;;;;14.89;48.69;99364.84;5054237;28;20099;-72
2022/09/03 00:51:39;;;;;;;28.50;19.58;;;;;;;14.85;48.95;99366.13;5038071;28;20505;-72
2022/09/03 00:54:32;;;;;;;29.75;20.10;;;;;;;14.79;49.27;99368.44;5037187;28;20499;-72
2022/09/03 00:57:35;;;;;;;32.20;19.98;;;;;;;14.72;49.43;99363.78;5055490;28;20059;-71
2022/09/03 01:00:14;;;;;;;26.45;19.80;;;;;;;14.61;49.22;99364.84;5055317;28;20078;-72
2022/09/03 01:02:45;;;;;;;27.53;19.80;;;;;;;14.58;49.54;99382.09;5055135;28;20128;-71
2022/09/03 01:05:30;;;;;;;34.28;20.20;;;;;;;14.39;50.15;99371.38;5037020;28;20045;-72
2022/09/03 01:08:20;;;;;;;34.45;20.70;;;;;;;14.48;50.19;99375.03;5053711;28;20538;-72
2022/09/03 01:11:09;;;;;;;29.45;20.30;;;;;;;14.41;50.26;99377.47;5037325;28;20048;-72
2022/09/03 01:14:01;;;;;;;28.88;19.63;;;;;;;14.37;50.45;99384.16;5053783;28;20055;-71
2022/09/03 01:16:55;;;;;;;27.58;20.02;;;;;;;14.30;50.70;99366.91;5020561;28;20049;-72
2022/09/03 01:19:34;;;;;;;30.92;20.27;;;;;;;14.30;50.68;99375.81;5036937;28;20086;-72
2022/09/03 01:22:09;;;;;;;28.10;20.20;;;;;;;14.30;50.66;99378.50;5036930;28;20045;-71
2022/09/03 01:24:48;;;;;;;29.27;19.90;;;;;;;14.30;50.46;99389.25;5053385;28;20084;-72
2022/09/03 01:27:33;;;;;;;33.90;20.83;;;;;;;14.29;50.58;99387.56;5036798;28;20103;-72
2022/09/03 01:30:18;;;;;;;31.80;20.05;;;;;;;14.28;50.47;99377.78;5020173;28;20072;-72
2022/09/03 01:33:26;;;;;;;27.85;19.73;;;;;;;14.28;51.02;99380.47;5036816;28;20383;-72
2022/09/03 01:36:07;;;;;;;33.53;21.48;;;;;;;14.26;51.11;99389.69;5020438;28;20047;-72
2022/09/03 01:38:55;;;;;;;33.40;21.33;;;;;;;14.20;51.03;99383.03;5036873;28;20118;-72
2022/09/03 01:45:00;;;;;;;31.63;20.48;;;;;;;14.14;50.79;99388.13;5036106;28;20110;-72
2022/09/03 01:47:54;;;;;;;31.38;20.42;;;;;;;14.06;51.34;99388.88;5052883;28;20055;-72
2022/09/03 01:50:58;;;;;;;29.30;20.90;;;;;;;14.03;50.83;99395.41;5036662;28;20071;-71
2022/09/03 01:53:45;;;;;;;28.70;20.35;;;;;;;13.93;51.35;99385.63;5041568;28;20095;-71
2022/09/03 01:56:44;;;;;;;31.27;21.35;;;;;;;13.88;51.35;99388.75;5052714;28;20059;-72
2022/09/03 01:59:14;;;;;;;29.08;19.85;;;;;;;13.80;51.37;99393.97;5052668;28;20499;-73
2022/09/03 02:02:05;;;;;;;29.10;20.63;;;;;;;13.67;51.82;99391.59;5035800;28;20086;-72
2022/09/03 02:04:31;;;;;;;30.48;21.50;;;;;;;13.66;51.84;99395.28;5014672;28;20195;-72
2022/09/03 02:07:00;;;;;;;31.15;21.05;;;;;;;13.66;52.09;99394.44;5036140;28;20143;-71
2022/09/03 02:09:26;;;;;;;33.67;20.05;;;;;;;13.67;52.06;99401.50;5035310;28;20040;-72
2022/09/03 02:11:58;;;;;;;30.92;21.45;;;;;;;13.59;51.85;99380.72;5035750;28;20155;-72
2022/09/03 02:14:26;;;;;;;32.75;20.00;;;;;;;13.70;51.98;99391.31;5052405;28;20140;-71
2022/09/03 02:16:55;;;;;;;32.58;20.92;;;;;;;13.79;51.71;99393.13;5035740;28;20045;-72
2022/09/03 02:19:23;;;;;;;31.38;20.63;;;;;;;13.78;51.95;99395.97;5053434;28;20052;-71
2022/09/03 02:21:52;;;;;;;29.00;20.30;;;;;;;13.74;51.44;99406.16;5035727;28;20048;-72
2022/09/03 02:24:18;;;;;;;28.38;20.58;;;;;;;13.73;51.27;99396.41;5053533;28;20454;-72
2022/09/03 02:26:45;;;;;;;29.42;19.23;;;;;;;13.64;52.08;99410.66;5019462;28;20041;-72
2022/09/03 02:29:14;;;;;;;31.15;19.85;;;;;;;13.69;51.49;99416.50;5035062;28;20052;-72
2022/09/03 02:31:40;;;;;;;31.60;20.58;;;;;;;13.57;51.76;99414.91;5035396;28;20052;-72
2022/09/03 02:34:06;;;;;;;29.48;20.08;;;;;;;13.56;51.84;99426.63;5052076;28;20128;-72
2022/09/03 02:36:36;;;;;;;27.88;19.13;;;;;;;13.60;52.07;99422.69;5051824;28;20036;-72
2022/09/03 02:39:03;;;;;;;38.90;20.60;;;;;;;13.64;51.60;99421.41;5051628;28;20048;-71
2022/09/03 02:41:30;;;;;;;37.88;20.98;;;;;;;13.57;51.82;99423.81;5051851;28;20053;-72
2022/09/03 02:44:09;;;;;;;38.40;21.27;;;;;;;13.59;51.82;99423.69;5052207;28;20492;-72
2022/09/03 02:46:44;;;;;;;29.15;20.38;;;;;;;13.68;51.78;99436.25;5018891;28;20128;-72
2022/09/03 02:49:10;;;;;;;31.30;20.10;;;;;;;13.69;51.74;99431.72;5018933;28;20044;-72
2022/09/03 02:51:39;;;;;;;33.55;21.80;;;;;;;13.59;51.68;99418.31;5053325;28;20037;-71
2022/09/03 02:54:05;;;;;;;32.83;22.05;;;;;;;13.72;51.45;99434.97;5051602;28;20043;-73
2022/09/03 02:56:31;;;;;;;43.05;22.75;;;;;;;13.65;51.14;99428.47;5034938;28;20076;-72
2022/09/03 02:58:57;;;;;;;34.28;20.70;;;;;;;13.71;51.56;99414.50;5050851;28;20052;-71
2022/09/03 03:01:23;;;;;;;39.30;22.30;;;;;;;13.75;51.24;99415.91;5035159;28;20052;-71
2022/09/03 03:03:50;;;;;;;31.42;20.95;;;;;;;13.87;50.82;99432.72;5034991;28;20071;-71
2022/09/03 03:06:18;;;;;;;34.95;20.40;;;;;;;13.93;50.77;99434.00;5051367;28;20053;-71
2022/09/03 03:08:44;;;;;;;31.48;20.10;;;;;;;13.98;50.77;99445.19;5051562;28;20055;-72
2022/09/03 03:11:10;;;;;;;30.33;19.35;;;;;;;14.01;50.28;99452.97;5051436;28;20041;-72
2022/09/03 03:13:36;;;;;;;29.48;19.70;;;;;;;14.01;50.51;99447.59;5034708;28;20040;-72
2022/09/03 03:16:07;;;;;;;32.47;20.50;;;;;;;13.98;50.73;99440.66;5053246;28;20110;-72
2022/09/03 03:18:33;;;;;;;36.80;19.90;;;;;;;13.94;51.10;99447.28;5035077;28;20040;-71
2022/09/03 03:21:08;;;;;;;28.83;20.38;;;;;;;14.05;51.16;99460.59;5050450;28;20045;-72
2022/09/03 03:23:35;;;;;;;32.13;20.05;;;;;;;14.04;50.72;99463.44;5018341;28;20139;-73
2022/09/03 03:26:06;;;;;;;38.20;18.02;;;;;;;14.05;50.22;99465.13;5051612;28;20049;-73
2022/09/03 03:28:33;;;;;;;27.95;18.30;;;;;;;14.21;50.14;99470.75;5018442;28;20064;-72
2022/09/03 03:31:15;;;;;;;32.28;19.58;;;;;;;14.37;49.41;99470.19;5034513;28;20048;-72
2022/09/03 03:33:41;;;;;;;28.48;18.35;;;;;;;14.52;49.42;99471.47;5052678;28;20048;-72
2022/09/03 03:36:10;;;;;;;31.45;19.50;;;;;;;14.67;49.14;99479.94;5051261;28;20056;-73
2022/09/03 03:38:36;;;;;;;;;;;;;;;14.71;48.75;99472.44;5018496;28;20044;-72
2022/09/03 03:41:07;;;;;;;29.33;19.00;;;;;;;14.78;49.33;99478.88;5034527;28;20019;-74
2022/09/03 03:43:33;;;;;;;28.05;19.17;;;;;;;14.84;48.93;99477.47;5051241;28;20041;-73
2022/09/03 03:46:00;;;;;;;34.35;20.35;;;;;;;14.89;49.14;99469.78;5034830;28;20048;-72
2022/09/03 03:48:26;;;;;;;34.38;19.65;;;;;;;15.01;48.92;99474.03;5051160;28;20186;-72
2022/09/03 03:50:52;;;;;;;37.60;20.88;;;;;;;15.08;49.09;99480.47;5034518;28;20129;-73
2022/09/03 03:53:19;;;;;;;29.45;19.88;;;;;;;15.10;49.05;99454.28;5051105;28;20041;-76
2022/09/03 03:56:00;;;;;;;34.67;19.98;;;;;;;15.38;48.43;99481.19;5018355;28;20132;-75
2022/09/03 03:58:28;;;;;;;39.38;20.75;;;;;;;15.52;47.92;99478.84;5052096;28;20052;-71
2022/09/03 04:00:53;;;;;;;34.85;21.15;;;;;;;15.56;47.66;99479.38;5034522;28;20393;-73
2022/09/03 04:03:20;;;;;;;31.60;21.13;;;;;;;15.72;47.61;99484.13;5034117;28;20052;-72
2022/09/03 04:05:58;;;;;;;30.95;20.70;;;;;;;15.76;46.77;99481.00;5032234;28;20128;-72
2022/09/03 04:08:24;;;;;;;32.67;20.53;;;;;;;15.73;46.89;99485.84;5039696;28;20087;-71
2022/09/03 04:10:50;;;;;;;31.50;20.30;;;;;;;15.72;46.76;99489.53;5031439;28;20627;-72
2022/09/03 04:13:17;;;;;;;31.55;21.65;;;;;;;15.78;46.86;99488.94;5014616;28;20041;-74
2022/09/03 04:15:43;;;;;;;35.38;22.35;;;;;;;15.76;46.95;99493.66;5014971;28;20051;-72
2022/09/03 04:18:10;;;;;;;39.10;22.67;;;;;;;15.82;47.35;99489.47;4997861;28;20045;-72
2022/09/03 04:20:36;;;;;;;36.33;22.27;;;;;;;16.00;47.51;99498.44;5031011;28;20048;-71
2022/09/03 04:23:03;;;;;;;35.60;22.05;;;;;;;16.07;47.67;99509.44;5031749;28;20132;-73
2022/09/03 04:25:30;;;;;;;38.30;22.40;;;;;;;16.04;47.42;99499.81;4997908;28;20045;-71
2022/09/03 04:27:56;;;;;;;37.97;22.40;;;;;;;16.14;47.34;99505.97;5030745;28;20037;-75
2022/09/03 04:30:22;;;;;;;37.15;23.67;;;;;;;16.26;47.45;99499.34;5014349;28;20064;-72
2022/09/03 04:32:52;;;;;;;31.60;21.92;;;;;;;16.38;47.52;99509.88;5015973;28;20048;-73
2022/09/03 04:35:22;;;;;;;36.10;21.90;;;;;;;16.54;47.11;99522.66;5001367;28;20045;-71
2022/09/03 04:37:48;;;;;;;36.20;22.75;;;;;;;16.68;46.68;99516.69;5017962;28;20037;-74
2022/09/03 04:40:14;;;;;;;34.67;23.38;;;;;;;16.84;46.16;99518.69;5034262;28;20070;-72
2022/09/03 04:42:40;;;;;;;47.65;23.52;;;;;;;16.85;46.14;99515.84;5017487;28;20144;-73
2022/09/03 04:45:07;;;;;;;36.88;22.48;;;;;;;17.03;45.69;99518.47;5017163;28;20065;-77
2022/09/03 04:47:34;;;;;;;40.28;22.92;;;;;;;16.87;45.22;99502.19;5035591;28;20523;-71
2022/09/03 04:50:00;;;;;;;35.55;23.17;;;;;;;17.04;45.06;99509.38;5034424;28;20437;-74
2022/09/03 04:52:30;;;;;;;34.97;22.77;;;;;;;17.20;44.44;99531.06;5001186;28;20041;-72
2022/09/03 04:54:56;;;;;;;35.40;20.58;;;;;;;17.29;44.06;99529.25;5033343;28;20045;-73
2022/09/03 04:57:22;;;;;;;39.67;20.65;;;;;;;17.44;44.38;99524.94;5033199;28;20056;-72
2022/09/03 04:59:48;;;;;;;29.65;20.90;;;;;;;17.60;43.67;99535.00;5016091;28;20077;-72
2022/09/03 05:02:14;;;;;;;31.23;21.10;;;;;;;17.61;42.55;99531.28;5033656;28;20119;-71
2022/09/03 05:04:43;;;;;;;35.55;19.73;;;;;;;17.70;41.72;99527.56;5033347;28;20041;-72
2022/09/03 05:07:09;;;;;;;35.15;20.13;;;;;;;17.76;41.30;99533.38;5034464;28;20124;-72
2022/09/03 05:09:35;;;;;;;31.75;19.38;;;;;;;17.82;40.70;99521.88;5032724;28;20493;-72
2022/09/03 05:12:01;;;;;;;26.33;18.80;;;;;;;17.99;40.49;99536.31;5000484;28;20096;-72
2022/09/03 05:14:27;;;;;;;31.08;19.02;;;;;;;18.04;39.93;99540.19;4999495;28;20060;-71
2022/09/03 05:16:52;;;;;;;30.70;18.75;;;;;;;18.11;39.81;99537.69;5000053;28;20513;-72
2022/09/03 05:19:18;;;;;;;25.90;18.60;;;;;;;18.08;38.55;99540.72;5016606;28;20048;-71
2022/09/03 05:21:44;;;;;;;38.50;17.65;;;;;;;18.19;38.65;99543.94;5016210;28;20493;-72
2022/09/03 05:24:10;;;;;;;35.03;18.20;;;;;;;18.23;38.76;99540.91;4999886;28;20037;-71
2022/09/03 05:26:38;;;;;;;25.27;18.63;;;;;;;18.19;38.43;99538.53;5016522;28;20069;-73
2022/09/03 05:29:09;;;;;;;28.15;17.63;;;;;;;18.24;37.95;99539.88;4999954;28;20559;-71
2022/09/03 05:31:38;;;;;;;26.85;18.23;;;;;;;18.46;38.27;99552.78;5015855;28;20041;-72
2022/09/03 05:34:05;;;;;;;26.55;17.98;;;;;;;18.37;37.57;99556.50;5000094;28;20518;-71
2022/09/03 05:36:34;;;;;;;27.58;17.17;;;;;;;18.30;38.06;99544.66;5034062;28;20072;-71
2022/09/03 05:39:00;;;;;;;;;;;;;;;18.39;36.96;99559.88;5032968;28;20037;-71
2022/09/03 05:41:28;;;;;;;27.92;17.05;;;;;;;18.49;36.95;99555.16;5033855;28;19921;-72
2022/09/03 05:43:57;;;;;;;26.95;15.15;;;;;;;18.59;36.82;99561.25;5032357;28;20042;-72
2022/09/03 05:46:30;;;;;;;24.60;15.15;;;;;;;18.66;36.20;99564.97;4999402;28;20045;-71
2022/09/03 05:49:01;;;;;;;23.50;13.00;;;;;;;18.60;35.87;99578.34;5033775;28;20048;-72
2022/09/03 05:51:28;;;;;;;25.08;13.02;;;;;;;18.61;35.86;99570.03;4999315;28;20564;-70
2022/09/03 05:53:54;;;;;;;18.42;12.93;;;;;;;18.59;35.87;99565.81;5032754;28;20543;-71
2022/09/03 05:56:23;;;;;;;21.35;11.75;;;;;;;18.64;35.62;99566.16;4999739;28;20034;-71
2022/09/03 05:58:51;;;;;;;17.58;11.52;;;;;;;18.75;34.60;99565.00;4983212;28;20140;-72
2022/09/03 06:01:25;;;;;;;13.85;10.65;;;;;;;18.65;34.44;99579.53;5016066;28;20049;-71
2022/09/03 06:03:56;;;;;;;20.02;10.45;;;;;;;18.66;33.75;99586.63;4999203;28;20049;-72
2022/09/03 06:06:26;;;;;;;18.33;10.68;;;;;;;18.80;34.15;99579.72;4999826;28;20115;-70
2022/09/03 06:08:53;;;;;;;15.95;10.63;;;;;;;18.55;33.74;99575.31;5015703;28;20139;-71
2022/09/03 06:11:22;;;;;;;15.38;9.93;;;;;;;18.56;34.00;99567.00;5015560;28;20076;-71
2022/09/03 06:13:48;;;;;;;17.48;11.00;;;;;;;18.75;34.53;99565.00;5014923;28;20052;-72
2022/09/03 06:16:14;;;;;;;17.95;10.15;;;;;;;18.89;34.14;99575.16;4998911;28;20049;-70
2022/09/03 06:18:40;;;;;;;15.88;10.65;;;;;;;19.00;34.44;99580.22;5015585;28;20102;-72
2022/09/03 06:21:06;;;;;;;20.92;10.38;;;;;;;19.08;34.17;99553.13;5033229;28;20045;-71
2022/09/03 06:23:35;;;;;;;17.67;9.80;;;;;;;19.23;33.81;99568.66;4999465;28;20045;-72
2022/09/03 06:26:07;;;;;;;17.90;9.73;;;;;;;19.14;33.95;99557.84;5015244;28;20133;-71
2022/09/03 06:28:36;;;;;;;24.58;9.73;;;;;;;19.12;34.04;99570.72;5014618;28;20523;-72
2022/09/03 06:31:05;;;;;;;14.82;11.02;;;;;;;19.20;34.01;99585.28;4998503;28;20043;-71
2022/09/03 06:33:33;;;;;;;16.65;10.35;;;;;;;19.41;33.89;99567.44;5031086;28;20182;-72
2022/09/03 06:36:00;;;;;;;19.63;11.25;;;;;;;19.35;33.65;99561.84;5031571;28;20041;-72
2022/09/03 06:38:30;;;;;;;18.58;10.55;;;;;;;19.48;33.93;99570.25;5031483;28;20514;-73
2022/09/03 06:41:03;;;;;;;12.15;8.25;;;;;;;19.44;33.07;99554.53;5014949;28;20034;-72
2022/09/03 06:43:32;;;;;;;16.95;8.60;;;;;;;19.37;33.56;99566.09;5014138;28;20069;-74
2022/09/03 06:46:00;;;;;;;14.48;8.07;;;;;;;19.50;33.18;99570.13;5031400;28;20052;-72
2022/09/03 06:48:29;;;;;;;17.70;6.82;;;;;;;19.42;32.41;99568.28;5032647;28;20192;-71
2022/09/03 06:51:05;;;;;;;28.08;7.70;;;;;;;19.56;32.66;99570.25;5015028;28;20132;-71
2022/09/03 06:53:33;;;;;;;16.35;7.75;;;;;;;19.58;32.26;99579.06;5014602;28;20046;-72
2022/09/03 06:56:02;;;;;;;12.35;7.10;;;;;;;19.86;32.39;99570.50;5032508;28;20196;-72
2022/09/03 06:58:34;;;;;;;17.57;7.70;;;;;;;19.96;31.97;99573.84;4997848;28;20049;-75
2022/09/03 07:01:02;;;;;;;12.55;7.55;;;;;;;19.96;31.23;99576.53;5014876;28;20520;-72
2022/09/03 07:03:28;;;;;;;15.75;8.90;;;;;;;20.08;31.69;99579.69;5030748;28;20049;-71
2022/09/03 07:06:00;;;;;;;20.60;8.80;;;;;;;20.27;31.60;99583.84;5031070;28;20148;-72
2022/09/03 07:08:26;;;;;;;14.23;9.05;;;;;;;19.90;31.74;99588.13;5031131;28;20096;-71
2022/09/03 07:10:52;;;;;;;19.35;8.35;;;;;;;19.91;31.90;99589.81;5032655;28;20049;-73
2022/09/03 07:13:19;;;;;;;13.57;7.60;;;;;;;19.94;31.38;99584.03;4998146;28;20641;-71
2022/09/03 07:15:45;;;;;;;14.38;5.45;;;;;;;19.78;30.28;99578.66;4997965;28;20601;-71
2022/09/03 07:18:11;;;;;;;12.50;6.43;;;;;;;19.77;30.63;99599.53;5014367;28;20104;-71
2022/09/03 07:20:40;;;;;;;10.18;6.55;;;;;;;19.50;30.88;99606.19;5031018;28;20037;-71
2022/09/03 07:23:06;;;;;;;14.77;6.43;;;;;;;19.39;30.75;99602.00;5014121;28;20045;-71
2022/09/03 07:25:32;;;;;;;11.85;6.70;;;;;;;19.55;31.05;99603.81;5030575;28;20045;-72
2022/09/03 07:27:58;;;;;;;13.93;7.78;;;;;;;19.65;30.61;99612.63;5030402;28;20053;-72
2022/09/03 07:30:25;;;;;;;19.00;8.10;;;;;;;19.57;31.06;99600.94;5031949;28;20080;-71
2022/09/03 07:32:52;;;;;;;15.65;8.40;;;;;;;19.80;31.14;99595.63;5030577;28;20045;-74
2022/09/03 07:35:18;;;;;;;18.90;8.85;;;;;;;20.07;30.81;99592.44;5031782;28;20045;-73
2022/09/03 07:37:44;;;;;;;29.05;9.00;;;;;;;20.29;30.17;99603.50;5031409;28;20041;-73
2022/09/03 07:40:10;;;;;;;11.90;5.97;;;;;;;20.21;29.59;99617.13;5014236;28;20132;-73
2022/09/03 07:42:40;;;;;;;12.38;6.30;;;;;;;19.91;29.71;99599.81;5024566;28;20474;-75
2022/09/03 07:45:09;;;;;;;11.90;6.65;;;;;;;19.86;29.82;99616.63;5031231;28;20059;-74
2022/09/03 07:47:36;;;;;;;24.85;7.20;;;;;;;20.09;29.08;99608.56;5030331;28;20042;-72
2022/09/03 07:50:03;;;;;;;14.70;6.70;;;;;;;20.03;29.52;99601.94;5030429;28;20090;-75
2022/09/03 07:52:30;;;;;;;17.92;6.22;;;;;;;20.25;29.12;99604.91;5031617;28;20465;-74
2022/09/03 07:54:55;;;;;;;12.05;5.78;;;;;;;20.33;28.94;99608.41;5014130;28;20091;-72
2022/09/03 07:57:21;;;;;;;18.08;6.32;;;;;;;20.14;28.61;99633.28;5013948;28;20045;-76
2022/09/03 07:59:47;;;;;;;11.63;7.47;;;;;;;20.14;29.40;99620.56;5013267;28;20148;-73
2022/09/03 08:02:13;;;;;;;13.73;6.72;;;;;;;20.44;28.63;99600.88;4997336;28;20190;-73
2022/09/03 08:04:39;;;;;;;18.05;6.38;;;;;;;20.56;28.92;99616.59;5030568;28;20041;-73
2022/09/03 08:07:05;;;;;;;12.43;6.18;;;;;;;20.54;28.67;99618.66;5015579;28;20041;-74
2022/09/03 08:09:34;;;;;;;12.68;6.72;;;;;;;20.75;28.17;99614.44;5034472;28;20046;-73
2022/09/03 08:12:00;;;;;;;20.13;6.53;;;;;;;20.78;28.16;99605.91;5001832;28;20065;-72
2022/09/03 08:14:29;;;;;;;16.75;6.63;;;;;;;20.59;27.88;99596.38;5017911;28;20124;-73
2022/09/03 08:16:55;;;;;;;12.77;7.22;;;;;;;20.54;28.53;99618.66;5018076;28;20441;-74
2022/09/03 08:19:21;;;;;;;12.70;7.13;;;;;;;20.74;28.54;99594.56;5001425;28;20079;-73
2022/09/03 08:21:47;;;;;;;12.25;7.38;;;;;;;21.00;27.63;99624.06;5001624;28;20041;-74
2022/09/03 08:24:16;;;;;;;20.52;6.05;;;;;;;20.65;26.71;99602.94;5001570;28;20048;-75
2022/09/03 08:26:42;;;;;;;21.50;5.65;;;;;;;20.80;26.49;99606.59;5034476;28;20068;-74
2022/09/03 08:29:09;;;;;;;13.55;5.10;;;;;;;20.77;25.95;99613.22;5034689;28;20049;-74
2022/09/03 08:31:35;;;;;;;12.68;4.38;;;;;;;20.69;25.26;99620.59;5035746;28;20045;-74
2022/09/03 08:34:05;;;;;;;11.82;4.80;;;;;;;20.53;24.28;99600.66;5035429;28;20061;-73
2022/09/03 08:36:36;;;;;;;9.23;3.60;;;;;;;20.51;23.78;99601.88;5034028;28;20043;-73
2022/09/03 08:39:08;;;;;;;8.07;4.00;;;;;;;20.86;23.86;99633.00;5017888;28;20047;-72
2022/09/03 08:42:09;;;;;;;8.65;4.60;;;;;;;21.09;23.11;99630.28;5017653;28;20099;-73
2022/09/03 08:44:57;;;;;;;10.98;4.60;;;;;;;21.04;22.55;99611.81;4993703;28;20111;-74
2022/09/03 08:47:35;;;;;;;13.25;4.68;;;;;;;21.32;22.47;99612.03;5035331;28;20077;-73
2022/09/03 08:50:37;;;;;;;14.85;5.88;;;;;;;21.06;23.97;99612.47;5001309;28;20053;-74
2022/09/03 08:53:10;;;;;;;10.05;5.55;;;;;;;21.16;23.89;99616.78;5034010;28;20049;-73
2022/09/03 08:55:52;;;;;;;10.07;4.88;;;;;;;21.08;23.86;99610.41;5017317;28;20045;-73
2022/09/03 08:58:25;;;;;;;8.77;4.72;;;;;;;21.18;24.10;99598.44;5000609;28;20091;-73
2022/09/03 09:01:02;;;;;;;6.40;4.78;;;;;;;21.64;23.54;99582.00;5035249;28;20085;-72
2022/09/03 09:03:34;;;;;;;21.35;5.07;;;;;;;21.95;23.41;99611.69;5034946;28;20045;-74
2022/09/03 09:06:44;;;;;;;16.60;3.92;;;;;;;21.80;23.13;99609.00;5017279;28;20106;-73
2022/09/03 09:09:23;;;;;;;9.00;4.28;;;;;;;22.05;22.87;99614.97;5021447;28;20420;-73
2022/09/03 09:11:49;;;;;;;9.65;3.15;;;;;;;22.31;21.78;99611.78;5034669;28;20079;-73
2022/09/03 09:14:40;;;;;;;10.57;3.50;;;;;;;22.44;21.05;99621.94;5016708;28;20045;-74
2022/09/03 09:17:18;;;;;;;5.18;2.90;;;;;;;22.36;21.27;99613.91;5000554;28;20049;-73
2022/09/03 09:20:09;;;;;;;11.88;3.22;;;;;;;22.81;21.24;99617.31;5033324;28;20057;-73
2022/09/03 09:22:45;;;;;;;3.55;2.60;;;;;;;22.98;20.77;99618.75;5017050;28;20065;-73
2022/09/03 09:25:20;;;;;;;6.13;2.80;;;;;;;22.97;21.11;99620.63;5033387;28;20053;-73
2022/09/03 09:28:32;;;;;;;7.05;2.67;;;;;;;22.87;21.25;99622.84;5000265;28;20081;-73
2022/09/03 09:31:01;;;;;;;8.90;2.90;;;;;;;22.86;21.53;99610.22;5015433;28;20045;-74
2022/09/03 09:33:31;;;;;;;8.43;3.47;;;;;;;23.02;21.45;99626.34;5034098;28;20546;-76
2022/09/03 09:36:08;;;;;;;14.85;3.33;;;;;;;23.38;20.92;99628.09;5019552;28;20036;-73
2022/09/03 09:38:36;;;;;;;14.55;3.63;;;;;;;23.57;20.36;99620.25;5036335;28;20053;-74
2022/09/03 09:41:16;;;;;;;9.98;3.15;;;;;;;23.61;20.75;99632.44;5053850;28;20045;-73
2022/09/03 09:43:42;;;;;;;6.55;3.70;;;;;;;23.81;21.07;99622.53;5036283;28;20049;-74
2022/09/03 09:46:15;;;;;;;11.20;3.85;;;;;;;23.70;20.58;99631.28;5053130;28;20053;-74
2022/09/03 09:48:53;;;;;;;5.93;3.17;;;;;;;23.67;20.65;99624.34;5053877;28;20044;-74
2022/09/03 09:51:22;;;;;;;12.77;3.22;;;;;;;24.02;20.29;99626.19;5036741;28;20057;-74
2022/09/03 09:54:17;;;;;;;12.05;3.10;;;;;;;24.13;20.00;99611.97;5019706;28;20102;-74
2022/09/03 09:56:43;;;;;;;4.80;3.15;;;;;;;24.01;19.94;99619.06;5052293;28;20037;-72
2022/09/03 09:59:11;;;;;;;5.53;3.40;;;;;;;23.77;20.16;99634.91;5021562;28;20057;-74
2022/09/03 10:01:39;;;;;;;7.78;3.85;;;;;;;24.19;20.57;99622.09;5015539;28;20057;-73
2022/09/03 10:04:11;;;;;;;8.07;3.50;;;;;;;24.68;19.43;99621.00;5032273;28;20042;-74
2022/09/03 10:06:53;;;;;;;8.57;3.72;;;;;;;25.12;19.44;99614.09;5033335;28;20083;-73
2022/09/03 10:09:23;;;;;;;6.15;3.10;;;;;;;24.86;18.95;99603.97;5032723;28;20041;-73
2022/09/03 10:12:18;;;;;;;10.48;3.38;;;;;;;24.37;19.05;99614.16;5015742;28;20428;-73
2022/09/03 10:14:59;;;;;;;9.00;3.50;;;;;;;24.59;19.22;99622.22;5016013;28;20065;-74
2022/09/03 10:17:59;;;;;;;13.55;3.30;;;;;;;24.87;18.42;99600.19;5032184;28;20519;-73
2022/09/03 10:20:53;;;;;;;7.65;2.90;;;;;;;24.78;18.29;99613.22;5015604;28;20045;-75
2022/09/03 10:23:32;;;;;;;6.10;3.00;;;;;;;24.64;18.37;99619.72;5015713;28;20475;-73
2022/09/03 10:26:06;;;;;;;12.40;3.45;;;;;;;24.44;18.49;99625.97;5032020;28;20099;-74
2022/09/03 10:28:41;;;;;;;8.10;3.78;;;;;;;24.37;19.11;99627.81;4999237;28;20132;-74
2022/09/03 10:31:24;;;;;;;9.75;3.42;;;;;;;24.06;19.58;99627.47;4999174;28;20037;-74
2022/09/03 10:33:58;;;;;;;11.73;3.65;;;;;;;23.69;19.49;99654.16;5015520;28;20073;-74
2022/09/03 10:36:44;;;;;;;8.02;3.50;;;;;;;24.18;19.40;99625.84;5031869;28;20132;-75
2022/09/03 10:39:20;;;;;;;16.15;3.90;;;;;;;24.82;18.88;99643.72;4998834;28;20127;-73
2022/09/03 10:42:09;;;;;;;7.18;3.58;;;;;;;24.49;19.36;99630.00;4998928;28;20496;-73
2022/09/03 10:45:05;;;;;;;9.10;4.07;;;;;;;23.78;20.47;99620.22;5015250;28;20049;-72
2022/09/03 10:47:41;;;;;;;11.75;4.82;;;;;;;24.36;20.60;99623.38;4998515;28;20067;-72
2022/09/03 10:50:20;;;;;;;8.60;4.60;;;;;;;25.25;20.04;99619.59;5014852;28;20107;-75
2022/09/03 10:53:17;;;;;;;7.40;4.60;;;;;;;25.50;19.36;99618.91;4998980;28;20052;-72
2022/09/03 10:55:47;;;;;;;4.82;3.60;;;;;;;25.24;19.29;99626.13;4999029;28;20056;-73
2022/09/03 10:58:36;;;;;;;12.85;4.40;;;;;;;25.71;18.66;99615.94;4998747;28;20056;-74
2022/09/03 11:01:14;;;;;;;10.00;4.00;;;;;;;25.15;18.99;99625.47;5031531;28;20153;-72
2022/09/03 11:03:41;;;;;;;9.90;3.90;;;;;;;24.93;19.16;99641.19;4998547;28;20507;-72
2022/09/03 11:06:18;;;;;;;8.80;4.57;;;;;;;25.17;19.38;99641.69;5031362;28;20551;-73
2022/09/03 11:09:09;;;;;;;6.63;3.70;;;;;;;25.08;19.80;99640.16;5032523;28;20124;-72
2022/09/03 11:11:46;;;;;;;6.03;3.83;;;;;;;25.64;19.48;99648.78;4997226;28;20087;-71
2022/09/03 11:14:16;;;;;;;10.85;4.72;;;;;;;25.48;19.23;99648.41;4998540;28;20037;-72
2022/09/03 11:16:53;;;;;;;11.75;4.60;;;;;;;25.98;19.40;99646.84;5014970;28;20041;-73
2022/09/03 11:19:29;;;;;;;8.35;3.88;;;;;;;27.15;18.76;99642.03;4999003;28;20535;-71
2022/09/03 11:21:55;;;;;;;7.40;3.90;;;;;;;27.07;18.18;99634.06;5014956;28;20052;-79
2022/09/03 11:24:25;;;;;;;6.10;3.35;;;;;;;26.40;18.42;99642.69;4998290;28;20469;-76
2022/09/03 11:27:27;;;;;;;8.63;3.45;;;;;;;26.50;18.46;99625.78;5032369;28;20049;-73
2022/09/03 11:29:56;;;;;;;8.50;3.28;;;;;;;25.53;19.49;99652.16;4998366;28;20052;-72
2022/09/03 11:32:32;;;;;;;;;;;;;;;25.35;19.65;99658.31;5015156;28;20043;-72
2022/09/03 11:34:58;;;;;;;12.43;3.40;;;;;;;25.00;19.81;99654.88;5031034;28;19924;-74
2022/09/03 11:37:26;;;;;;;10.88;3.45;;;;;;;24.86;20.11;99655.91;5031006;28;20045;-73
2022/09/03 11:40:20;;;;;;;15.27;4.13;;;;;;;25.39;19.67;99656.00;5032445;28;20053;-84
2022/09/03 11:42:47;;;;;;;10.50;3.35;;;;;;;25.51;19.44;99648.00;5016367;28;20424;-76
2022/09/03 11:45:30;;;;;;;4.93;2.90;;;;;;;25.47;19.39;99663.16;5034929;28;20057;-73
2022/09/03 11:47:58;;;;;;;11.00;3.10;;;;;;;25.08;19.86;99659.31;5002459;28;20045;-77
2022/09/03 11:50:26;;;;;;;11.00;3.20;;;;;;;25.04;20.09;99647.09;5035362;28;20554;-77
2022/09/03 11:53:06;;;;;;;10.52;3.30;;;;;;;25.65;19.49;99660.56;5002329;28;20049;-74